logo
Search for airport 
image banner adimage banner adimage banner ad
image banner ad

SCBV - Bellavista

Located in Rio Claro, Chile

ICAO - SCBV, IATA -

Data provided by Airmate  

General information

Coordinates: S35°11'15" W71°17'48"
Elevation is 885 feet MSL.
Magnetic variation is 3° East
View others Airports in Maule

Operational data

Special qualification required
Current time UTC:
Current local time:
Weather at : SCIC - General Freire ( 26 km )
METAR: SCIC 280800Z AUTO 11004KT //// R/////// FEW010 07/07 Q1018
View NOTAMs / SUP AIP / TFR affecting this airport [VIEW]
Communications frequencies: [VIEW]

Runways:

RWY identifierQFULength (ft)Width (ft)SurfaceLDA (ft)
18191°214261ASPH/DIRT
3611°214261ASPH

Airport contact information

Address: Rio Claro Chile

Satellite view of SCBV